Aérodrome :
LOGIN :

S'inscrire | Disclaimer

   EN    FR    IT 

 










Légende :    VFR   VFR Marginal   IFR   IFR Intensif   IFR Très Intensif
Visi : 
Plafond : 
>= 8 km
>= 3000ft
5 à 8 km
1000 à 3000 ft
1500m à 5 km
500 à 1000 ft
800 à 1500m
200 à 500 ft
< 800m
< 200 ft
Symboles :   Orages  Brouillard  Fortes neiges  Fortes précipitations  Vent > 20 kt
SIGMETs :   Divers  Orages  Givrage  Turbulence  Onde Orograph.  Cendres Volcan.







- Altitude de l'aérodrome : 499 ft
- Code IATA : TLS
- Voir les cartes d'approche


LFBO - Toulouse / Blagnac

DERNIER METAR :
  • 150200Z AUTO VRB03KT 9999 BKN009 OVC050 03/M01 Q1023 NOSIG

METARs EXPIRÉS :
  • 150130Z AUTO 01004KT 350V050 9999 BKN008 OVC052 03/M00 Q1023 NOSIG
  • 150100Z AUTO 03003KT 360V060 9999 OVC008 03/M00 Q1023 NOSIG
  • 150030Z AUTO 01004KT 340V040 9999 OVC009 03/00 Q1023 NOSIG
  • 150000Z AUTO 01004KT 9999 BKN009 OVC050 03/00 Q1023 NOSIG
  • 142330Z AUTO 35006KT 9000 OVC010 03/01 Q1023 NOSIG

TAF TAF LFBO
Valide du 15 à 00h jusqu'au 16 à 06h UTC


142300Z 1500/1606 VRB02KT 9999 BKN030
TEMPO 1500/1504 BKN008
BECMG 1504/1506 CAVOK
PROB30
TEMPO 1504/1509 BKN006
BECMG 1511/1513 BKN025
PROB40
TEMPO 1514/1519 -RA BKN013
TEMPO 1523/1606 -RA
PROB30
TEMPO 1523/1603 4000 BKN005
BECMG 1505/1507 11005KT
BECMG 1601/1603 27008KT
ATIS : +33 5 62 74 66 36
Pas de NOTAMs connus pour ce terrain.



MET'MAP, la Météo Aéronautique d'un coup d'oeil ! - Copyright ORBIFLY Décembre 2007 - Disclaimer

ORBIFLY MET'MAP TEAM :

Programmation & Développement : Alexandra Zaïnal
Conception & Développement : Baudouin d'Aumeries
Co-Programmation & Développement : Marc-Olivier Méhu
Soutien technique & logistique : Manuel Goepfert

Contact : metmap@orbifly.com




SOURCES & CREDITS :

   NOAA